Time;durP1;ratioP1;P1;durP2;ratioP2;P2;SDS_P1;SDS_P2;PMS_P1;PMS_P2;Temp;Humidity;BMP_temperature;BMP_pressure;BME280_temperature;BME280_humidity;BME280_pressure;Samples;Min_cycle;Max_cycle;Signal;HPM_P1;HPM_P2
2023/08/12 00:00:16;;;;;;;15.43;9.88;;;;;;;;;;5024680;28;20190;-71
2023/08/12 00:02:43;;;;;;;13.73;9.25;;;;;;;;;;5027286;28;20194;-71
2023/08/12 00:05:10;;;;;;;14.93;9.05;;;;;;;;;;5017312;28;20182;-71
2023/08/12 00:07:37;;;;;;;14.45;8.93;;;;;;;;;;5023563;28;20233;-72
2023/08/12 00:10:04;;;;;;;13.48;10.05;;;;;;;;;;5027077;28;20186;-72
2023/08/12 00:12:33;;;;;;;14.95;10.65;;;;;;;;;;5018578;28;20198;-71
2023/08/12 00:14:59;;;;;;;14.13;9.65;;;;;;;;;;5017725;28;20226;-71
2023/08/12 00:17:24;;;;;;;17.85;10.82;;;;;;;;;;5015299;28;20259;-71
2023/08/12 00:19:50;;;;;;;14.07;9.80;;;;;;;;;;5027495;28;20232;-71
2023/08/12 00:22:15;;;;;;;16.80;9.43;;;;;;;;;;5024369;28;20183;-69
2023/08/12 00:24:41;;;;;;;15.95;10.57;;;;;;;;;;5030656;28;20233;-70
2023/08/12 00:27:06;;;;;;;13.80;10.10;;;;;;;;;;5038661;28;20253;-71
2023/08/12 00:29:32;;;;;;;17.15;10.15;;;;;;;;;;5026230;28;20194;-71
2023/08/12 00:31:58;;;;;;;19.63;9.73;;;;;;;;;;5030911;28;20214;-71
2023/08/12 00:34:23;;;;;;;16.50;10.35;;;;;;;;;;5029606;28;20194;-70
2023/08/12 00:36:48;;;;;;;15.23;10.35;;;;;;;;;;5022086;28;20541;-70
2023/08/12 00:39:14;;;;;;;17.42;10.50;;;;;;;;;;5026085;28;20216;-71
2023/08/12 00:41:39;;;;;;;14.98;9.70;;;;;;;;;;5022144;28;20190;-71
2023/08/12 00:44:05;;;;;;;13.18;9.60;;;;;;;;;;5024662;28;20676;-70
2023/08/12 00:46:30;;;;;;;18.10;10.25;;;;;;;;;;5029943;28;20206;-70
2023/08/12 00:48:56;;;;;;;14.82;9.80;;;;;;;;;;5029671;28;20277;-70
2023/08/12 00:51:22;;;;;;;13.00;9.50;;;;;;;;;;5019246;28;20269;-70
2023/08/12 00:53:49;;;;;;;14.63;10.32;;;;;;;;;;5024121;28;20194;-70
2023/08/12 00:56:15;;;;;;;17.58;10.73;;;;;;;;;;5011287;28;20210;-71
2023/08/12 00:58:41;;;;;;;14.07;10.10;;;;;;;;;;5029619;28;20272;-71
2023/08/12 01:01:07;;;;;;;14.38;10.10;;;;;;;;;;5029813;28;20648;-71
2023/08/12 01:03:32;;;;;;;13.20;10.07;;;;;;;;;;5029614;28;20194;-71
2023/08/12 01:05:59;;;;;;;15.48;10.98;;;;;;;;;;5017405;28;20201;-71
2023/08/12 01:08:29;;;;;;;15.38;10.23;;;;;;;;;;5029733;28;20693;-70
2023/08/12 01:11:16;;;;;;;18.52;10.65;;;;;;;;;;5028409;28;20673;-70
2023/08/12 01:13:49;;;;;;;19.35;11.68;;;;;;;;;;5030254;28;20265;-70
2023/08/12 01:16:17;;;;;;;19.05;10.70;;;;;;;;;;5027619;28;20197;-70
2023/08/12 01:18:43;;;;;;;18.40;11.05;;;;;;;;;;5018971;28;20232;-70
2023/08/12 01:21:15;;;;;;;18.50;11.48;;;;;;;;;;5029698;28;20203;-70
2023/08/12 01:23:41;;;;;;;21.13;11.88;;;;;;;;;;5029633;28;20186;-70
2023/08/12 01:26:06;;;;;;;19.23;11.57;;;;;;;;;;5028864;28;20201;-71
2023/08/12 01:28:32;;;;;;;17.25;11.07;;;;;;;;;;5015210;28;20233;-71
2023/08/12 01:31:16;;;;;;;19.25;11.30;;;;;;;;;;5038581;28;20247;-70
2023/08/12 01:33:41;;;;;;;20.50;12.07;;;;;;;;;;5016243;28;20216;-71
2023/08/12 01:36:13;;;;;;;22.33;12.07;;;;;;;;;;5027836;28;20285;-71
2023/08/12 01:38:39;;;;;;;21.77;12.50;;;;;;;;;;5028828;28;20186;-70
2023/08/12 01:41:09;;;;;;;21.13;12.50;;;;;;;;;;5029413;28;20251;-71
2023/08/12 01:43:34;;;;;;;15.50;11.40;;;;;;;;;;5028489;28;20256;-70
2023/08/12 01:46:00;;;;;;;18.63;12.35;;;;;;;;;;5024174;28;20198;-71
2023/08/12 01:48:25;;;;;;;21.15;12.88;;;;;;;;;;5024782;28;20257;-70
2023/08/12 01:50:50;;;;;;;21.02;13.30;;;;;;;;;;5029750;28;20252;-71
2023/08/12 01:53:16;;;;;;;18.65;13.07;;;;;;;;;;5029178;28;20513;-71
2023/08/12 01:55:44;;;;;;;16.92;12.52;;;;;;;;;;5028078;28;20190;-71
2023/08/12 01:58:10;;;;;;;16.90;12.10;;;;;;;;;;5028853;28;20177;-71
2023/08/12 02:00:36;;;;;;;19.23;13.70;;;;;;;;;;5026552;28;20190;-70
2023/08/12 02:03:02;;;;;;;18.05;13.07;;;;;;;;;;5032797;28;20197;-70
2023/08/12 02:05:27;;;;;;;19.10;13.00;;;;;;;;;;5026575;28;20194;-70
2023/08/12 02:07:52;;;;;;;23.38;13.90;;;;;;;;;;5031952;28;20229;-70
2023/08/12 02:10:18;;;;;;;20.75;13.90;;;;;;;;;;5030975;28;20197;-70
2023/08/12 02:12:43;;;;;;;19.48;13.35;;;;;;;;;;5029199;28;20225;-71
2023/08/12 02:15:09;;;;;;;19.02;13.80;;;;;;;;;;5029535;28;20186;-70
2023/08/12 02:17:34;;;;;;;21.73;14.30;;;;;;;;;;5020681;28;20256;-71
2023/08/12 02:20:00;;;;;;;21.38;13.57;;;;;;;;;;5033647;28;20304;-71
2023/08/12 02:22:25;;;;;;;18.48;13.82;;;;;;;;;;5033240;28;20572;-71
2023/08/12 02:24:50;;;;;;;23.73;16.13;;;;;;;;;;5031387;28;20186;-72
2023/08/12 02:27:16;;;;;;;19.95;14.98;;;;;;;;;;5033104;28;20202;-71
2023/08/12 02:29:41;;;;;;;23.48;15.65;;;;;;;;;;5021997;28;20237;-71
2023/08/12 02:32:06;;;;;;;21.70;14.77;;;;;;;;;;5032780;28;20244;-71
2023/08/12 02:34:32;;;;;;;23.73;15.70;;;;;;;;;;5032156;28;20198;-71
2023/08/12 02:36:57;;;;;;;24.95;16.52;;;;;;;;;;5010895;28;20282;-70
2023/08/12 02:39:23;;;;;;;25.17;16.88;;;;;;;;;;5033081;28;20255;-70
2023/08/12 02:41:48;;;;;;;29.50;17.75;;;;;;;;;;5030378;28;20205;-71
2023/08/12 02:44:14;;;;;;;28.73;18.85;;;;;;;;;;5029834;28;20230;-71
2023/08/12 02:46:39;;;;;;;24.45;18.10;;;;;;;;;;5038844;28;20210;-72
2023/08/12 02:49:04;;;;;;;29.77;18.45;;;;;;;;;;5029357;28;20654;-71
2023/08/12 02:51:30;;;;;;;26.10;18.05;;;;;;;;;;5031210;28;20193;-71
2023/08/12 02:53:55;;;;;;;26.92;19.30;;;;;;;;;;5019255;28;20663;-71
2023/08/12 02:56:20;;;;;;;25.40;19.23;;;;;;;;;;5027462;28;20194;-71
2023/08/12 02:58:47;;;;;;;28.13;19.67;;;;;;;;;;5031266;28;20198;-72
2023/08/12 03:01:12;;;;;;;27.17;18.50;;;;;;;;;;5031463;28;20769;-71
2023/08/12 03:03:38;;;;;;;26.80;19.85;;;;;;;;;;5030357;28;20224;-71
2023/08/12 03:06:03;;;;;;;30.45;20.60;;;;;;;;;;5028208;28;20217;-71
2023/08/12 03:08:28;;;;;;;30.10;21.92;;;;;;;;;;5032129;28;20210;-71
2023/08/12 03:11:00;;;;;;;27.88;20.70;;;;;;;;;;5026124;28;20629;-71
2023/08/12 03:13:25;;;;;;;30.67;22.15;;;;;;;;;;5032534;28;20194;-71
2023/08/12 03:15:51;;;;;;;31.88;21.95;;;;;;;;;;5030257;28;20278;-71
2023/08/12 03:18:16;;;;;;;30.83;23.48;;;;;;;;;;5032104;28;20607;-71
2023/08/12 03:20:41;;;;;;;34.15;24.45;;;;;;;;;;5026242;28;20194;-71
2023/08/12 03:23:07;;;;;;;31.75;22.15;;;;;;;;;;5030530;28;20186;-71
2023/08/12 03:25:32;;;;;;;35.67;24.00;;;;;;;;;;5031978;28;20307;-71
2023/08/12 03:27:58;;;;;;;40.33;26.13;;;;;;;;;;5029410;28;20225;-71
2023/08/12 03:30:23;;;;;;;36.20;25.48;;;;;;;;;;5023250;28;20254;-72
2023/08/12 03:32:49;;;;;;;34.40;24.98;;;;;;;;;;5025183;28;20190;-72
2023/08/12 03:35:14;;;;;;;34.28;24.60;;;;;;;;;;5031571;28;20190;-72
2023/08/12 03:37:39;;;;;;;34.38;24.65;;;;;;;;;;5031943;28;20609;-70
2023/08/12 03:40:06;;;;;;;34.83;26.83;;;;;;;;;;5026946;28;20502;-71
2023/08/12 03:42:31;;;;;;;33.20;24.02;;;;;;;;;;5022519;28;20264;-70
2023/08/12 03:44:57;;;;;;;35.08;24.75;;;;;;;;;;5012705;28;20217;-70
2023/08/12 03:47:24;;;;;;;31.63;24.33;;;;;;;;;;5022102;28;20218;-70
2023/08/12 03:49:49;;;;;;;32.80;25.70;;;;;;;;;;5016524;28;20260;-70
2023/08/12 03:52:15;;;;;;;36.30;26.63;;;;;;;;;;5024002;28;20487;-70
2023/08/12 03:54:40;;;;;;;37.40;27.48;;;;;;;;;;5027710;28;20197;-70
2023/08/12 03:57:05;;;;;;;34.83;25.75;;;;;;;;;;5019412;28;20190;-71
2023/08/12 03:59:31;;;;;;;35.72;27.75;;;;;;;;;;5031188;28;20198;-71
2023/08/12 04:01:57;;;;;;;33.40;26.35;;;;;;;;;;5027882;28;20194;-70
2023/08/12 04:04:22;;;;;;;34.53;25.33;;;;;;;;;;5028552;28;20186;-70
2023/08/12 04:06:51;;;;;;;33.10;25.98;;;;;;;;;;5026735;28;20206;-71
2023/08/12 04:09:19;;;;;;;35.13;26.02;;;;;;;;;;5029505;28;20191;-71
2023/08/12 04:11:45;;;;;;;26.08;20.65;;;;;;;;;;5036422;28;20202;-70
2023/08/12 04:14:11;;;;;;;32.03;25.27;;;;;;;;;;5015037;28;20204;-71
2023/08/12 04:16:37;;;;;;;34.63;26.13;;;;;;;;;;5030177;28;20190;-71
2023/08/12 04:19:02;;;;;;;33.85;25.85;;;;;;;;;;5029123;28;20273;-72
2023/08/12 04:21:28;;;;;;;34.85;26.27;;;;;;;;;;5028239;28;20244;-71
2023/08/12 04:23:53;;;;;;;35.40;26.00;;;;;;;;;;5027773;28;20247;-70
2023/08/12 04:26:19;;;;;;;39.22;26.20;;;;;;;;;;5027906;28;20193;-70
2023/08/12 04:28:44;;;;;;;32.63;25.40;;;;;;;;;;5025484;28;20226;-70
2023/08/12 04:31:09;;;;;;;34.45;26.23;;;;;;;;;;5030018;28;20269;-71
2023/08/12 04:33:35;;;;;;;33.03;25.55;;;;;;;;;;5030678;28;20211;-71
2023/08/12 04:36:00;;;;;;;34.55;26.55;;;;;;;;;;5028696;28;20548;-71
2023/08/12 04:38:26;;;;;;;33.15;24.83;;;;;;;;;;5019991;28;20212;-71
2023/08/12 04:40:53;;;;;;;35.88;24.85;;;;;;;;;;5029289;28;20190;-71
2023/08/12 04:43:19;;;;;;;33.78;24.38;;;;;;;;;;5029213;28;20590;-71
2023/08/12 04:45:46;;;;;;;31.17;24.05;;;;;;;;;;5029158;28;20325;-71
2023/08/12 04:48:11;;;;;;;28.38;22.92;;;;;;;;;;5024591;28;20702;-70
2023/08/12 04:50:38;;;;;;;27.63;21.27;;;;;;;;;;5028647;28;20185;-71
2023/08/12 04:53:07;;;;;;;29.35;22.55;;;;;;;;;;5024895;28;20536;-70
2023/08/12 04:55:34;;;;;;;27.10;20.95;;;;;;;;;;5030258;28;20248;-70
2023/08/12 04:57:59;;;;;;;29.48;21.58;;;;;;;;;;5022578;28;20190;-71
2023/08/12 05:00:24;;;;;;;27.88;21.50;;;;;;;;;;5027747;28;20193;-70
2023/08/12 05:02:50;;;;;;;31.38;21.92;;;;;;;;;;5020285;28;20260;-69
2023/08/12 05:05:15;;;;;;;28.95;20.13;;;;;;;;;;5022065;28;20222;-71
2023/08/12 05:07:40;;;;;;;27.73;20.33;;;;;;;;;;5011298;28;20214;-70
2023/08/12 05:10:06;;;;;;;26.58;18.90;;;;;;;;;;5019686;28;20261;-70
2023/08/12 05:12:32;;;;;;;24.77;18.23;;;;;;;;;;5016764;28;20200;-70
2023/08/12 05:14:57;;;;;;;20.85;18.42;;;;;;;;;;5029446;28;20194;-70
2023/08/12 05:17:22;;;;;;;23.25;18.42;;;;;;;;;;5029138;28;20209;-71
2023/08/12 05:19:48;;;;;;;19.88;16.88;;;;;;;;;;5022673;28;20285;-71
2023/08/12 05:22:13;;;;;;;27.83;17.42;;;;;;;;;;5021509;28;20228;-70
2023/08/12 05:24:39;;;;;;;24.45;17.45;;;;;;;;;;5028436;28;20596;-70
2023/08/12 05:27:04;;;;;;;25.42;18.30;;;;;;;;;;5028820;28;20229;-70
2023/08/12 05:29:30;;;;;;;27.50;17.70;;;;;;;;;;5024550;28;20715;-70
2023/08/12 05:31:56;;;;;;;25.50;16.33;;;;;;;;;;5038010;28;20201;-70
2023/08/12 05:34:21;;;;;;;21.80;16.35;;;;;;;;;;5029273;28;20570;-70
2023/08/12 05:36:47;;;;;;;20.92;15.85;;;;;;;;;;5029537;28;20605;-70
2023/08/12 05:39:12;;;;;;;23.48;15.73;;;;;;;;;;5029847;28;20693;-69
2023/08/12 05:41:37;;;;;;;20.90;15.10;;;;;;;;;;5026705;28;20194;-70
2023/08/12 05:44:03;;;;;;;22.17;14.57;;;;;;;;;;5028997;28;20303;-69
2023/08/12 05:46:29;;;;;;;19.05;13.48;;;;;;;;;;5028442;28;20190;-70
2023/08/12 05:48:54;;;;;;;19.08;13.85;;;;;;;;;;5022067;28;20541;-69
2023/08/12 05:51:19;;;;;;;16.95;12.60;;;;;;;;;;5020525;28;20193;-71
2023/08/12 05:53:45;;;;;;;21.52;13.23;;;;;;;;;;5026741;28;20705;-71
2023/08/12 05:56:10;;;;;;;15.63;11.75;;;;;;;;;;5028948;28;20197;-69
2023/08/12 05:58:35;;;;;;;18.58;12.30;;;;;;;;;;5020717;28;20216;-70
2023/08/12 06:01:02;;;;;;;18.35;11.32;;;;;;;;;;5019691;28;20217;-70
2023/08/12 06:03:27;;;;;;;15.50;10.55;;;;;;;;;;5040943;28;20197;-70
2023/08/12 06:05:53;;;;;;;20.98;10.98;;;;;;;;;;5025750;28;20190;-70
2023/08/12 06:08:18;;;;;;;14.95;11.68;;;;;;;;;;5026414;28;20330;-70
2023/08/12 06:10:44;;;;;;;16.33;11.82;;;;;;;;;;5028409;28;20648;-70
2023/08/12 06:13:09;;;;;;;17.75;10.90;;;;;;;;;;5027908;28;20278;-70
2023/08/12 06:15:34;;;;;;;19.95;12.02;;;;;;;;;;5016575;28;20249;-70
2023/08/12 06:18:01;;;;;;;18.88;13.52;;;;;;;;;;5027698;28;20208;-70
2023/08/12 06:20:26;;;;;;;20.90;14.18;;;;;;;;;;5029204;28;20552;-70
2023/08/12 06:22:52;;;;;;;19.85;13.50;;;;;;;;;;5027366;28;20198;-70
2023/08/12 06:25:18;;;;;;;18.55;14.10;;;;;;;;;;5029040;28;20198;-71
2023/08/12 06:27:44;;;;;;;19.95;14.48;;;;;;;;;;5015847;28;20222;-71
2023/08/12 06:30:10;;;;;;;19.33;14.45;;;;;;;;;;5022300;28;20548;-70
2023/08/12 06:32:35;;;;;;;21.67;14.65;;;;;;;;;;5034374;28;20198;-70
2023/08/12 06:35:01;;;;;;;21.73;15.02;;;;;;;;;;5028641;28;20239;-70
2023/08/12 06:37:26;;;;;;;22.98;15.90;;;;;;;;;;5029637;28;20524;-70
2023/08/12 06:39:52;;;;;;;27.30;15.38;;;;;;;;;;5027988;28;20669;-71
2023/08/12 06:42:17;;;;;;;23.58;17.40;;;;;;;;;;5029121;28;20312;-70
2023/08/12 06:44:42;;;;;;;26.92;17.55;;;;;;;;;;5029171;28;20190;-70
2023/08/12 06:47:08;;;;;;;26.75;18.13;;;;;;;;;;5032739;28;20224;-70
2023/08/12 06:49:33;;;;;;;27.00;19.13;;;;;;;;;;5032080;28;20260;-70
2023/08/12 06:51:59;;;;;;;24.60;16.52;;;;;;;;;;5031186;28;20261;-70
2023/08/12 06:54:24;;;;;;;25.90;19.48;;;;;;;;;;5026143;28;20286;-71
2023/08/12 06:56:50;;;;;;;30.10;20.20;;;;;;;;;;5016356;28;20658;-72
2023/08/12 06:59:15;;;;;;;31.30;21.25;;;;;;;;;;5031477;28;20194;-72
2023/08/12 07:01:41;;;;;;;32.22;21.77;;;;;;;;;;5030776;28;20189;-76
2023/08/12 07:04:06;;;;;;;33.58;20.38;;;;;;;;;;5030621;28;20265;-75
2023/08/12 07:06:32;;;;;;;34.83;21.35;;;;;;;;;;5031774;28;20266;-76
2023/08/12 07:08:57;;;;;;;35.40;22.77;;;;;;;;;;5030856;28;20263;-73
2023/08/12 07:11:23;;;;;;;34.17;22.13;;;;;;;;;;5032440;28;20305;-73
2023/08/12 07:13:48;;;;;;;31.38;22.52;;;;;;;;;;5017292;28;20224;-74
2023/08/12 07:16:13;;;;;;;31.15;23.65;;;;;;;;;;5031696;28;20189;-73
2023/08/12 07:18:39;;;;;;;36.40;22.75;;;;;;;;;;5018447;28;20284;-74
2023/08/12 07:21:04;;;;;;;36.20;22.65;;;;;;;;;;5012231;28;20229;-74
2023/08/12 07:23:30;;;;;;;30.20;22.50;;;;;;;;;;5008047;28;20677;-75
2023/08/12 07:25:55;;;;;;;33.00;21.73;;;;;;;;;;5027321;28;20504;-74
2023/08/12 07:28:20;;;;;;;34.05;22.75;;;;;;;;;;5025034;28;20696;-74
2023/08/12 07:30:48;;;;;;;30.27;21.17;;;;;;;;;;5040587;28;20189;-75
2023/08/12 07:33:13;;;;;;;37.67;23.48;;;;;;;;;;5028994;28;20246;-76
2023/08/12 07:35:39;;;;;;;35.90;22.75;;;;;;;;;;5029961;28;20303;-77
2023/08/12 07:38:06;;;;;;;36.17;22.63;;;;;;;;;;5022695;28;20555;-77
2023/08/12 07:40:31;;;;;;;32.75;22.33;;;;;;;;;;5030849;28;20213;-75
2023/08/12 07:42:56;;;;;;;32.00;21.48;;;;;;;;;;5023671;28;20258;-75
2023/08/12 07:45:22;;;;;;;38.00;22.52;;;;;;;;;;5012600;28;20189;-75
2023/08/12 07:47:49;;;;;;;33.25;22.45;;;;;;;;;;5023911;28;20340;-75
2023/08/12 07:50:15;;;;;;;35.00;22.55;;;;;;;;;;5026571;28;20273;-75
2023/08/12 07:52:40;;;;;;;33.72;22.15;;;;;;;;;;5021741;28;20296;-75
2023/08/12 07:55:06;;;;;;;32.25;22.52;;;;;;;;;;5032864;28;20204;-76
2023/08/12 07:57:32;;;;;;;33.10;23.08;;;;;;;;;;5029161;28;20261;-77
2023/08/12 07:59:57;;;;;;;28.02;21.42;;;;;;;;;;5014162;28;20197;-77
2023/08/12 08:02:23;;;;;;;32.20;23.73;;;;;;;;;;5012895;28;20632;-75
2023/08/12 08:04:49;;;;;;;31.85;23.40;;;;;;;;;;5030622;28;20215;-75
2023/08/12 08:07:17;;;;;;;35.97;23.67;;;;;;;;;;5012652;28;20602;-76
2023/08/12 08:09:43;;;;;;;32.05;22.23;;;;;;;;;;5029316;28;20182;-75
2023/08/12 08:12:10;;;;;;;33.13;24.33;;;;;;;;;;5031577;28;20186;-77
2023/08/12 08:14:36;;;;;;;34.35;23.73;;;;;;;;;;5015569;28;20190;-76
2023/08/12 08:17:03;;;;;;;34.35;24.85;;;;;;;;;;5022460;28;20303;-76
2023/08/12 08:19:29;;;;;;;32.85;24.67;;;;;;;;;;5028295;28;20201;-76
2023/08/12 08:21:55;;;;;;;23.45;20.02;;;;;;;;;;5010335;28;20199;-77
2023/08/12 08:24:20;;;;;;;28.48;22.52;;;;;;;;;;5013342;28;20200;-77
2023/08/12 08:26:46;;;;;;;26.17;20.75;;;;;;;;;;5031858;28;20190;-76
2023/08/12 08:29:12;;;;;;;25.83;18.67;;;;;;;;;;5026267;28;20202;-75
2023/08/12 08:31:38;;;;;;;30.77;21.58;;;;;;;;;;5039549;28;20187;-75
2023/08/12 08:34:03;;;;;;;26.35;20.95;;;;;;;;;;5019283;28;20553;-76
2023/08/12 08:36:29;;;;;;;25.25;20.88;;;;;;;;;;5024785;28;20198;-76
2023/08/12 08:38:54;;;;;;;25.05;19.58;;;;;;;;;;5025751;28;20205;-74
2023/08/12 08:41:21;;;;;;;23.58;18.33;;;;;;;;;;5028243;28;20182;-74
2023/08/12 08:43:48;;;;;;;23.33;17.05;;;;;;;;;;5016912;28;20226;-76
2023/08/12 08:46:18;;;;;;;19.85;15.82;;;;;;;;;;5029111;28;20269;-76
2023/08/12 08:48:45;;;;;;;22.20;16.70;;;;;;;;;;5020451;28;20233;-74
2023/08/12 08:51:11;;;;;;;20.25;16.45;;;;;;;;;;5025937;28;20220;-75
2023/08/12 08:53:41;;;;;;;22.58;16.48;;;;;;;;;;5022417;28;20201;-76
2023/08/12 08:56:08;;;;;;;16.63;14.90;;;;;;;;;;5029329;28;20237;-76
2023/08/12 08:58:34;;;;;;;19.13;16.17;;;;;;;;;;5020215;28;20289;-73
2023/08/12 09:00:59;;;;;;;20.88;15.70;;;;;;;;;;5018498;28;20182;-75
2023/08/12 09:03:25;;;;;;;17.90;15.32;;;;;;;;;;5018845;28;20187;-76
2023/08/12 09:05:52;;;;;;;16.55;14.60;;;;;;;;;;5026897;28;20175;-74
2023/08/12 09:08:18;;;;;;;18.55;15.23;;;;;;;;;;5011545;28;20267;-76
2023/08/12 09:10:45;;;;;;;18.27;14.77;;;;;;;;;;5029086;28;20190;-76
2023/08/12 09:13:11;;;;;;;17.48;13.85;;;;;;;;;;5028544;28;20221;-76
2023/08/12 09:15:36;;;;;;;13.38;11.93;;;;;;;;;;5011559;28;20213;-75
2023/08/12 09:18:05;;;;;;;13.90;11.65;;;;;;;;;;5025005;28;20205;-75
2023/08/12 09:20:30;;;;;;;13.07;10.95;;;;;;;;;;5020820;28;20629;-74
2023/08/12 09:22:57;;;;;;;12.50;11.23;;;;;;;;;;5026350;28;20220;-73
2023/08/12 09:25:23;;;;;;;13.60;10.95;;;;;;;;;;5028072;28;20289;-72
2023/08/12 09:27:48;;;;;;;11.48;10.05;;;;;;;;;;5027198;28;20301;-73
2023/08/12 09:30:14;;;;;;;13.98;11.05;;;;;;;;;;5029483;28;20203;-72
2023/08/12 09:32:39;;;;;;;12.93;11.52;;;;;;;;;;5035269;28;20293;-70
2023/08/12 09:35:05;;;;;;;12.02;10.73;;;;;;;;;;5027022;28;20263;-72
2023/08/12 09:37:31;;;;;;;14.18;11.10;;;;;;;;;;5029244;28;20514;-70
2023/08/12 09:40:00;;;;;;;14.32;10.98;;;;;;;;;;5028502;28;20189;-71
2023/08/12 09:42:28;;;;;;;13.27;11.38;;;;;;;;;;5010927;28;20221;-70
2023/08/12 09:44:53;;;;;;;13.85;11.73;;;;;;;;;;5014433;28;20294;-71
2023/08/12 09:47:19;;;;;;;11.45;10.35;;;;;;;;;;5020032;28;20281;-69
2023/08/12 09:49:44;;;;;;;13.85;12.18;;;;;;;;;;5027332;28;20194;-73
2023/08/12 09:52:10;;;;;;;17.25;12.00;;;;;;;;;;5029292;28;20200;-72
2023/08/12 09:54:35;;;;;;;14.45;12.93;;;;;;;;;;5007876;28;20228;-71
2023/08/12 09:57:03;;;;;;;14.07;11.50;;;;;;;;;;5028910;28;20235;-72
2023/08/12 09:59:36;;;;;;;14.18;11.82;;;;;;;;;;5028679;28;20637;-73
2023/08/12 10:02:07;;;;;;;11.95;10.73;;;;;;;;;;5028150;28;20194;-71
2023/08/12 10:04:41;;;;;;;10.77;9.70;;;;;;;;;;5026904;28;20182;-70
2023/08/12 10:07:09;;;;;;;8.55;7.75;;;;;;;;;;5027081;28;20250;-72
2023/08/12 10:09:36;;;;;;;8.48;7.68;;;;;;;;;;5019108;28;20194;-70
2023/08/12 10:12:02;;;;;;;8.35;7.55;;;;;;;;;;5028883;28;20713;-71
2023/08/12 10:14:29;;;;;;;8.57;7.70;;;;;;;;;;5024326;28;20218;-70
2023/08/12 10:16:55;;;;;;;7.97;7.25;;;;;;;;;;5020644;28;20209;-71
2023/08/12 10:19:21;;;;;;;7.60;6.45;;;;;;;;;;5017172;28;20214;-70
2023/08/12 10:21:48;;;;;;;6.13;5.63;;;;;;;;;;5032911;28;20194;-70
2023/08/12 10:24:16;;;;;;;6.15;5.55;;;;;;;;;;5020380;28;20217;-70
2023/08/12 10:26:42;;;;;;;6.60;5.40;;;;;;;;;;5027100;28;20552;-69
2023/08/12 10:29:07;;;;;;;6.68;6.07;;;;;;;;;;5030231;28;20197;-69
2023/08/12 10:31:33;;;;;;;5.63;4.80;;;;;;;;;;5043433;28;20602;-70
2023/08/12 10:33:58;;;;;;;5.97;5.03;;;;;;;;;;5023989;28;20561;-69
2023/08/12 10:36:26;;;;;;;5.32;4.85;;;;;;;;;;5027865;28;20197;-69
2023/08/12 10:38:52;;;;;;;6.90;5.13;;;;;;;;;;5030676;28;20190;-69
2023/08/12 10:41:19;;;;;;;5.15;4.70;;;;;;;;;;5025658;28;20296;-70
2023/08/12 10:43:50;;;;;;;5.25;4.45;;;;;;;;;;5036660;28;20273;-70
2023/08/12 10:46:27;;;;;;;4.68;3.50;;;;;;;;;;5020647;28;20218;-68
2023/08/12 10:49:04;;;;;;;5.15;4.00;;;;;;;;;;5018606;28;20752;-71
2023/08/12 10:52:02;;;;;;;4.55;4.10;;;;;;;;;;5032418;28;20189;-72
2023/08/12 10:54:30;;;;;;;4.25;3.20;;;;;;;;;;5018735;28;20237;-70
2023/08/12 10:57:05;;;;;;;3.05;2.50;;;;;;;;;;5031247;28;20190;-70
2023/08/12 10:59:46;;;;;;;2.88;1.95;;;;;;;;;;5030885;28;20302;-69
2023/08/12 11:02:17;;;;;;;1.48;1.38;;;;;;;;;;5030231;28;20202;-71
2023/08/12 11:04:43;;;;;;;1.00;0.90;;;;;;;;;;5026651;28;20239;-71
2023/08/12 11:07:46;;;;;;;2.15;1.20;;;;;;;;;;5030632;28;20696;-70
2023/08/12 11:10:17;;;;;;;1.50;1.40;;;;;;;;;;5030055;28;20232;-71
2023/08/12 11:12:52;;;;;;;1.48;1.15;;;;;;;;;;5028858;28;20267;-70
2023/08/12 11:15:19;;;;;;;1.05;1.05;;;;;;;;;;5026439;28;20193;-70
2023/08/12 11:17:46;;;;;;;1.38;1.27;;;;;;;;;;5031035;28;20206;-70
2023/08/12 11:20:13;;;;;;;1.35;1.25;;;;;;;;;;5031507;28;20202;-72
2023/08/12 11:22:41;;;;;;;1.35;1.25;;;;;;;;;;5029194;28;20522;-71
2023/08/12 11:25:09;;;;;;;1.30;1.20;;;;;;;;;;5023064;28;20653;-70
2023/08/12 11:27:41;;;;;;;1.52;1.40;;;;;;;;;;5031347;28;20213;-70
2023/08/12 11:30:08;;;;;;;1.58;1.48;;;;;;;;;;5021852;28;20350;-70
2023/08/12 11:32:34;;;;;;;1.50;1.40;;;;;;;;;;5037323;28;20268;-71
2023/08/12 11:34:59;;;;;;;2.47;1.30;;;;;;;;;;5028045;28;20320;-70
2023/08/12 11:37:25;;;;;;;1.45;1.35;;;;;;;;;;5021422;28;20499;-69
2023/08/12 11:39:53;;;;;;;1.77;1.00;;;;;;;;;;5031038;28;20333;-71
2023/08/12 11:42:18;;;;;;;1.33;1.23;;;;;;;;;;5031342;28;20260;-71
2023/08/12 11:44:44;;;;;;;1.35;1.20;;;;;;;;;;5019831;28;20203;-70
2023/08/12 11:47:09;;;;;;;1.45;1.20;;;;;;;;;;5031858;28;20218;-70
2023/08/12 11:49:34;;;;;;;1.30;1.20;;;;;;;;;;5020208;28;20277;-69
2023/08/12 11:52:00;;;;;;;1.45;0.90;;;;;;;;;;5029372;28;20292;-70
2023/08/12 11:54:26;;;;;;;1.10;0.90;;;;;;;;;;5029623;28;20270;-70
2023/08/12 11:56:52;;;;;;;0.80;0.80;;;;;;;;;;5027604;28;20276;-71
2023/08/12 11:59:17;;;;;;;1.33;0.70;;;;;;;;;;5016616;28;20285;-71
2023/08/12 12:01:48;;;;;;;0.80;0.80;;;;;;;;;;5029502;28;20201;-70
2023/08/12 12:04:14;;;;;;;1.25;0.68;;;;;;;;;;5029970;28;20271;-70
2023/08/12 12:06:40;;;;;;;1.10;0.63;;;;;;;;;;5029177;28;20220;-71
2023/08/12 12:09:09;;;;;;;2.38;1.10;;;;;;;;;;5026133;28;20229;-69
2023/08/12 12:11:39;;;;;;;1.13;0.80;;;;;;;;;;5031623;28;20757;-71
2023/08/12 12:14:06;;;;;;;1.23;1.00;;;;;;;;;;5029730;28;20194;-70
2023/08/12 12:16:43;;;;;;;2.13;0.80;;;;;;;;;;5021685;28;20628;-74
2023/08/12 12:19:19;;;;;;;0.95;0.77;;;;;;;;;;5022950;28;20186;-71
2023/08/12 12:21:47;;;;;;;0.85;0.82;;;;;;;;;;5017810;28;20209;-72
2023/08/12 12:24:12;;;;;;;0.68;0.60;;;;;;;;;;5029020;28;20198;-71
2023/08/12 12:26:38;;;;;;;0.63;0.45;;;;;;;;;;5030712;28;20194;-71
2023/08/12 12:29:04;;;;;;;1.65;1.00;;;;;;;;;;5030032;28;20272;-70
2023/08/12 12:31:32;;;;;;;2.35;0.98;;;;;;;;;;5038169;28;20542;-71
2023/08/12 12:33:58;;;;;;;1.27;1.00;;;;;;;;;;5020285;28;20202;-71
2023/08/12 12:36:23;;;;;;;1.58;0.73;;;;;;;;;;5033116;28;20220;-74
2023/08/12 12:38:48;;;;;;;1.65;0.88;;;;;;;;;;5028908;28;20179;-71
2023/08/12 12:41:14;;;;;;;2.17;0.90;;;;;;;;;;5030690;28;20200;-72
2023/08/12 12:43:39;;;;;;;2.38;0.90;;;;;;;;;;5028530;28;20600;-72
2023/08/12 12:46:05;;;;;;;2.50;1.00;;;;;;;;;;5030623;28;20198;-73
2023/08/12 12:48:30;;;;;;;2.60;1.20;;;;;;;;;;5010489;28;20301;-71
2023/08/12 12:50:56;;;;;;;4.50;1.38;;;;;;;;;;5026975;28;20318;-71
2023/08/12 12:53:21;;;;;;;2.58;1.10;;;;;;;;;;5029988;28;20189;-72
2023/08/12 12:55:46;;;;;;;2.25;1.45;;;;;;;;;;5030434;28;20198;-73
2023/08/12 12:58:12;;;;;;;3.95;1.27;;;;;;;;;;5028726;28;20703;-72
2023/08/12 13:00:37;;;;;;;5.50;1.40;;;;;;;;;;5029592;28;20194;-73
2023/08/12 13:03:03;;;;;;;3.75;1.50;;;;;;;;;;5027263;28;20221;-71
2023/08/12 13:05:28;;;;;;;2.83;1.30;;;;;;;;;;5024504;28;20287;-70
2023/08/12 13:07:53;;;;;;;5.28;1.50;;;;;;;;;;5028811;28;20220;-72
2023/08/12 13:10:19;;;;;;;4.15;1.58;;;;;;;;;;5027828;28;20606;-74
2023/08/12 13:12:44;;;;;;;4.70;1.60;;;;;;;;;;5028254;28;20248;-73
2023/08/12 13:15:10;;;;;;;4.90;1.42;;;;;;;;;;5029680;28;20205;-71
2023/08/12 13:17:35;;;;;;;4.90;1.73;;;;;;;;;;5027754;28;20749;-72
2023/08/12 13:20:00;;;;;;;5.78;1.55;;;;;;;;;;5029706;28;20209;-72
2023/08/12 13:22:26;;;;;;;3.28;1.75;;;;;;;;;;5029517;28;20193;-73
2023/08/12 13:24:51;;;;;;;3.42;1.70;;;;;;;;;;5014725;28;20222;-70
2023/08/12 13:27:17;;;;;;;3.70;1.45;;;;;;;;;;5028056;28;20213;-74
2023/08/12 13:29:43;;;;;;;5.70;1.45;;;;;;;;;;5024270;28;20345;-72
2023/08/12 13:32:08;;;;;;;4.93;1.88;;;;;;;;;;5040224;28;20185;-71
2023/08/12 13:34:33;;;;;;;3.55;1.27;;;;;;;;;;5019045;28;20186;-73
2023/08/12 13:36:59;;;;;;;7.10;1.58;;;;;;;;;;5021851;28;20218;-73
2023/08/12 13:39:24;;;;;;;4.95;1.80;;;;;;;;;;5020188;28;20202;-71
2023/08/12 13:41:50;;;;;;;5.88;2.00;;;;;;;;;;5026535;28;20190;-72
2023/08/12 13:44:15;;;;;;;3.80;1.88;;;;;;;;;;5028174;28;20535;-71
2023/08/12 13:46:40;;;;;;;6.50;1.98;;;;;;;;;;5013782;28;20198;-71
2023/08/12 13:49:06;;;;;;;4.32;1.80;;;;;;;;;;5028877;28;20349;-72
2023/08/12 13:51:31;;;;;;;4.70;1.80;;;;;;;;;;5028313;28;20256;-72
2023/08/12 13:53:57;;;;;;;6.18;2.05;;;;;;;;;;5014354;28;20193;-72
2023/08/12 13:56:22;;;;;;;4.88;2.08;;;;;;;;;;5027723;28;20468;-71
2023/08/12 13:58:47;;;;;;;6.28;2.15;;;;;;;;;;5013016;28;20261;-71
2023/08/12 14:01:13;;;;;;;6.43;1.73;;;;;;;;;;5025858;28;20632;-71
2023/08/12 14:03:38;;;;;;;4.82;1.88;;;;;;;;;;5017586;28;20190;-72
2023/08/12 14:06:04;;;;;;;5.80;1.60;;;;;;;;;;5031128;28;20483;-73
2023/08/12 14:08:30;;;;;;;9.85;1.95;;;;;;;;;;5031104;28;20206;-71
2023/08/12 14:10:56;;;;;;;5.68;2.10;;;;;;;;;;5027830;28;20295;-73
2023/08/12 14:13:21;;;;;;;5.38;2.03;;;;;;;;;;5032347;28;20264;-70
2023/08/12 14:15:47;;;;;;;5.13;1.80;;;;;;;;;;5020412;28;20280;-71
2023/08/12 14:18:12;;;;;;;5.63;1.90;;;;;;;;;;5019668;28;20198;-72
2023/08/12 14:20:37;;;;;;;6.15;1.85;;;;;;;;;;5031516;28;20194;-73